createdAt,value
2019-05-28T00:00:40.925Z,14.70
2019-05-28T00:03:11.719Z,14.70
2019-05-28T00:05:43.516Z,14.70
2019-05-28T00:08:14.275Z,14.70
2019-05-28T00:10:45.447Z,14.70
2019-05-28T00:13:16.292Z,14.70
2019-05-28T00:15:47.730Z,14.70
2019-05-28T00:18:19.377Z,14.60
2019-05-28T00:20:50.318Z,14.60
2019-05-28T00:23:21.592Z,14.60
2019-05-28T00:25:52.135Z,14.70
2019-05-28T00:28:23.113Z,14.60
2019-05-28T00:30:54.636Z,14.60
2019-05-28T00:33:26.052Z,14.60
2019-05-28T00:35:57.531Z,14.60
2019-05-28T00:38:29.102Z,14.60
2019-05-28T00:41:00.294Z,14.60
2019-05-28T00:43:31.152Z,14.60
2019-05-28T00:46:02.387Z,14.50
2019-05-28T00:48:33.244Z,14.60
2019-05-28T00:51:03.919Z,14.50
2019-05-28T00:53:35.161Z,14.50
2019-05-28T00:56:06.882Z,14.50
2019-05-28T00:58:38.831Z,14.50
2019-05-28T02:02:19.918Z,14.20
2019-05-28T02:04:51.925Z,14.20
2019-05-28T02:07:22.996Z,14.20
2019-05-28T02:09:54.455Z,14.20
2019-05-28T02:12:25.503Z,14.20
2019-05-28T02:14:56.203Z,14.20
2019-05-28T02:17:27.554Z,14.20
2019-05-28T02:19:58.924Z,14.10
2019-05-28T02:22:30.138Z,14.10
2019-05-28T02:25:01.825Z,14.10
2019-05-28T02:27:33.586Z,14.10
2019-05-28T02:30:04.540Z,14.10
2019-05-28T02:32:35.485Z,14.10
2019-05-28T02:35:07.079Z,14.10
2019-05-28T02:37:38.024Z,14.00
2019-05-28T02:40:10.166Z,14.00
2019-05-28T02:42:41.571Z,13.90
2019-05-28T02:45:13.127Z,14.00
2019-05-28T02:47:44.469Z,13.90
2019-05-28T02:50:17.656Z,14.00
2019-05-28T02:52:49.116Z,14.00
2019-05-28T02:55:39.809Z,14.00
2019-05-28T02:58:11.777Z,14.00
2019-05-28T03:00:44.836Z,14.00
2019-05-28T03:03:17.145Z,14.00
2019-05-28T03:05:50.992Z,13.90
2019-05-28T03:08:24.313Z,13.90
2019-05-28T03:11:03.166Z,13.90
2019-05-28T03:13:28.282Z,13.90
2019-05-28T03:16:01.556Z,13.90
2019-05-28T03:18:37.712Z,13.90
2019-05-28T03:21:09.822Z,14.00
2019-05-28T03:23:43.362Z,13.90
2019-05-28T03:26:14.940Z,13.90
2019-05-28T03:28:46.409Z,14.00
2019-05-28T03:31:17.523Z,14.00
2019-05-28T03:33:48.675Z,14.00
2019-05-28T03:36:21.689Z,14.00
2019-05-28T03:38:53.357Z,14.00
2019-05-28T03:41:24.354Z,14.00
2019-05-28T03:43:55.408Z,14.00
2019-05-28T03:46:26.531Z,13.90
2019-05-28T03:48:57.572Z,14.00
2019-05-28T03:51:28.924Z,14.00
2019-05-28T03:54:00.405Z,14.00
2019-05-28T03:56:32.028Z,14.00
2019-05-28T03:59:03.104Z,14.00
2019-05-28T04:01:34.799Z,14.00
2019-05-28T04:04:05.649Z,14.00
2019-05-28T04:06:36.328Z,14.00
2019-05-28T04:09:09.287Z,13.90
2019-05-28T04:11:44.773Z,14.00
2019-05-28T04:14:14.057Z,14.00
2019-05-28T04:16:45.857Z,14.10
2019-05-28T04:19:17.280Z,14.10
2019-05-28T04:21:48.931Z,14.00
2019-05-28T04:24:19.664Z,14.00
2019-05-28T04:26:51.013Z,14.10
2019-05-28T04:29:22.449Z,14.10
2019-05-28T04:31:53.904Z,14.00
2019-05-28T04:34:25.956Z,14.00
2019-05-28T04:36:57.367Z,14.00
2019-05-28T04:39:28.936Z,14.00
2019-05-28T04:42:01.055Z,14.00
2019-05-28T04:44:32.376Z,14.00
2019-05-28T04:47:07.690Z,14.00
2019-05-28T04:49:38.039Z,14.00
2019-05-28T04:52:08.901Z,14.00
2019-05-28T04:54:40.312Z,14.00
2019-05-28T04:57:11.769Z,14.10
2019-05-28T04:59:43.565Z,14.20
2019-05-28T05:02:14.568Z,14.20
2019-05-28T05:04:45.671Z,14.20
2019-05-28T05:07:17.227Z,14.20
2019-05-28T05:09:47.968Z,14.10
2019-05-28T05:12:19.464Z,14.20
2019-05-28T05:14:50.483Z,14.30
2019-05-28T05:17:21.210Z,14.40
2019-05-28T05:19:53.125Z,14.40
2019-05-28T05:22:25.108Z,14.40
2019-05-28T05:24:56.885Z,14.40
2019-05-28T05:27:28.661Z,14.50
2019-05-28T05:30:00.941Z,14.50
2019-05-28T05:32:32.031Z,14.50
2019-05-28T05:35:03.800Z,14.40
2019-05-28T05:37:35.274Z,14.40
2019-05-28T05:40:08.177Z,14.40
2019-05-28T05:42:39.239Z,14.50
2019-05-28T05:45:10.949Z,14.50
2019-05-28T05:47:43.350Z,14.40
2019-05-28T05:50:14.595Z,14.30
2019-05-28T05:52:45.721Z,14.30
2019-05-28T05:55:17.722Z,14.40
2019-05-28T05:57:49.565Z,14.40
2019-05-28T06:00:21.524Z,14.50
2019-05-28T06:02:52.993Z,14.50
2019-05-28T06:05:24.419Z,14.50
2019-05-28T06:07:56.025Z,14.60
2019-05-28T06:10:27.483Z,14.50
2019-05-28T06:12:58.281Z,14.40
2019-05-28T06:15:29.746Z,14.40
2019-05-28T06:18:02.283Z,14.40
2019-05-28T06:20:33.509Z,14.40
2019-05-28T06:23:04.828Z,14.30
2019-05-28T06:25:43.075Z,14.30
2019-05-28T06:28:14.513Z,14.20
2019-05-28T06:30:45.989Z,14.20
2019-05-28T06:33:17.771Z,14.30
2019-05-28T06:35:49.376Z,14.30
2019-05-28T06:38:21.150Z,14.20
2019-05-28T06:40:52.592Z,14.20
2019-05-28T06:43:24.060Z,14.20
2019-05-28T06:45:56.214Z,14.20
2019-05-28T06:48:27.455Z,14.20
2019-05-28T06:50:58.897Z,14.20
2019-05-28T06:53:30.385Z,14.10
2019-05-28T06:56:01.690Z,14.10
2019-05-28T06:58:39.539Z,14.20
2019-05-28T07:01:05.958Z,14.10
2019-05-28T07:03:37.511Z,14.10
2019-05-28T07:06:09.030Z,14.10
2019-05-28T07:08:40.416Z,14.10
2019-05-28T07:11:12.052Z,14.30
2019-05-28T07:13:44.766Z,14.30
2019-05-28T07:16:16.096Z,14.30
2019-05-28T07:18:47.944Z,14.20
2019-05-28T07:21:19.654Z,14.00
2019-05-28T07:23:51.048Z,14.00
2019-05-28T07:26:22.190Z,14.00
2019-05-28T07:28:53.960Z,13.90
2019-05-28T07:31:25.050Z,14.00
2019-05-28T07:33:56.627Z,14.00
2019-05-28T07:36:28.320Z,14.00
2019-05-28T07:38:59.747Z,14.00
2019-05-28T07:41:30.853Z,14.00
2019-05-28T07:44:02.533Z,13.90
2019-05-28T07:46:33.998Z,14.00
2019-05-28T07:49:05.547Z,13.80
2019-05-28T07:51:37.237Z,13.80
2019-05-28T07:54:08.834Z,13.70
2019-05-28T07:56:40.853Z,13.80
2019-05-28T07:59:11.535Z,13.80
2019-05-28T08:01:43.183Z,13.80
2019-05-28T08:04:16.762Z,13.70
2019-05-28T08:06:54.635Z,13.70
2019-05-28T08:09:21.897Z,13.70
2019-05-28T08:11:53.645Z,13.80
2019-05-28T08:14:26.576Z,13.80
2019-05-28T08:16:57.437Z,13.80
2019-05-28T08:19:28.547Z,13.80
2019-05-28T08:22:00.587Z,13.90
2019-05-28T08:24:32.411Z,13.90
2019-05-28T08:27:03.861Z,13.90
2019-05-28T08:29:34.660Z,13.90
2019-05-28T08:32:05.799Z,14.00
2019-05-28T08:34:36.316Z,14.10
2019-05-28T08:37:07.865Z,14.10
2019-05-28T08:39:39.436Z,14.10
2019-05-28T08:42:10.711Z,14.20
2019-05-28T08:44:42.491Z,14.10
2019-05-28T08:47:14.152Z,14.10
2019-05-28T08:49:45.771Z,14.00
2019-05-28T08:52:16.891Z,13.90
2019-05-28T08:54:51.177Z,13.90
2019-05-28T08:57:21.786Z,13.90
2019-05-28T08:59:52.925Z,14.00
2019-05-28T09:02:28.336Z,14.10
2019-05-28T09:04:57.467Z,14.10
2019-05-28T09:07:29.217Z,14.10
2019-05-28T09:10:00.248Z,14.00
2019-05-28T09:12:31.107Z,14.00
2019-05-28T09:15:02.438Z,14.00
2019-05-28T09:17:33.231Z,14.10
2019-05-28T09:20:04.043Z,14.20
2019-05-28T09:22:34.805Z,14.20
2019-05-28T09:25:06.269Z,14.30
2019-05-28T09:27:37.199Z,14.40
2019-05-28T09:30:09.411Z,14.40
2019-05-28T09:32:39.952Z,14.40
2019-05-28T09:35:11.054Z,14.50
2019-05-28T09:37:41.867Z,14.50
2019-05-28T09:40:17.389Z,14.50
2019-05-28T09:42:49.347Z,14.40
2019-05-28T09:45:22.784Z,14.30
2019-05-28T09:47:55.289Z,14.30
2019-05-28T09:50:31.095Z,14.40
2019-05-28T09:52:59.479Z,14.40
2019-05-28T09:55:31.059Z,14.50
2019-05-28T09:58:01.644Z,14.60
2019-05-28T10:00:36.609Z,14.50
2019-05-28T10:03:08.429Z,14.60
2019-05-28T10:05:39.542Z,14.60
2019-05-28T10:08:11.400Z,14.70
2019-05-28T10:10:42.556Z,14.70
2019-05-28T10:13:13.696Z,14.90
2019-05-28T10:15:44.929Z,15.00
2019-05-28T10:18:16.096Z,15.10
2019-05-28T10:20:47.239Z,15.10
2019-05-28T10:23:18.814Z,15.20
2019-05-28T10:30:53.032Z,15.10
2019-05-28T10:33:26.439Z,15.50
2019-05-28T10:35:57.302Z,15.70
2019-05-28T10:43:29.217Z,15.80
2019-05-28T10:46:00.729Z,16.20
2019-05-28T10:53:32.246Z,16.30
2019-05-28T10:56:03.868Z,16.80
2019-05-28T10:58:35.660Z,16.80
2019-05-28T11:01:06.656Z,16.70
2019-05-28T11:03:38.227Z,16.90
2019-05-28T11:06:09.407Z,17.00
2019-05-28T11:08:40.160Z,17.20
2019-05-28T11:11:11.310Z,17.00
2019-05-28T11:13:52.712Z,16.90
2019-05-28T11:16:15.400Z,17.10
2019-05-28T11:18:46.892Z,17.00
2019-05-28T11:21:18.075Z,17.10
2019-05-28T11:23:48.925Z,17.50
2019-05-28T11:26:19.942Z,17.70
2019-05-28T11:43:53.031Z,17.90
2019-05-28T11:46:23.678Z,18.40
2019-05-28T11:48:55.052Z,18.50
2019-05-28T11:51:26.597Z,18.50
2019-05-28T11:53:58.739Z,18.80
2019-05-28T11:56:29.871Z,18.80
2019-05-28T13:52:12.396Z,19.00
2019-05-28T13:54:43.524Z,22.50
2019-05-28T13:57:14.256Z,22.60
2019-05-28T13:59:45.776Z,22.20
2019-05-28T14:02:16.818Z,21.80
2019-05-28T14:04:47.956Z,20.30
2019-05-28T14:07:19.817Z,20.00
2019-05-28T14:09:51.395Z,19.10
2019-05-28T14:12:22.543Z,18.20
2019-05-28T14:14:54.327Z,17.90
2019-05-28T14:50:06.248Z,17.30
2019-05-28T14:52:38.217Z,15.70
2019-05-28T14:55:21.763Z,15.60
2019-05-28T15:07:55.921Z,16.20
2019-05-28T15:10:28.140Z,17.10
2019-05-28T15:13:00.472Z,16.90
2019-05-28T15:15:36.264Z,16.40
2019-05-28T15:18:05.131Z,16.10
2019-05-28T15:20:36.704Z,15.80
2019-05-28T15:23:08.566Z,16.00
2019-05-28T15:25:39.755Z,15.90
2019-05-28T15:28:11.570Z,15.70
2019-05-28T15:30:44.159Z,15.80
2019-05-28T15:33:15.993Z,15.70
2019-05-28T15:35:48.402Z,15.40
2019-05-28T15:38:19.613Z,15.00
2019-05-28T15:40:51.199Z,15.10
2019-05-28T15:43:22.732Z,15.10
2019-05-28T15:45:53.628Z,14.90
2019-05-28T15:48:25.255Z,14.60
2019-05-28T15:50:57.108Z,14.70
2019-05-28T15:53:28.671Z,14.60
2019-05-28T15:56:00.644Z,14.70
2019-05-28T15:58:31.781Z,14.50
2019-05-28T16:01:07.866Z,14.40
2019-05-28T16:03:39.518Z,14.50
2019-05-28T16:06:12.102Z,14.50
2019-05-28T16:08:56.231Z,14.50
2019-05-28T16:11:27.711Z,14.50
2019-05-28T16:14:00.296Z,14.50
2019-05-28T16:16:31.483Z,14.50
2019-05-28T16:19:07.118Z,14.50
2019-05-28T16:21:38.707Z,14.60
2019-05-28T16:24:10.261Z,14.70
2019-05-28T16:26:41.462Z,14.60
2019-05-28T16:29:13.329Z,14.50
2019-05-28T16:31:44.836Z,14.50
2019-05-28T16:34:16.049Z,14.50
2019-05-28T16:36:47.733Z,14.50
2019-05-28T16:39:19.543Z,14.50
2019-05-28T16:41:50.975Z,14.50
2019-05-28T16:44:22.519Z,14.50
2019-05-28T16:47:15.427Z,14.30
2019-05-28T16:49:30.779Z,14.30
2019-05-28T16:52:02.684Z,14.50
2019-05-28T16:54:35.266Z,14.50
2019-05-28T16:57:07.651Z,14.60
2019-05-28T16:59:39.053Z,14.60
2019-05-28T17:02:11.018Z,14.70
2019-05-28T17:04:43.042Z,14.80
2019-05-28T17:07:14.912Z,14.90
2019-05-28T17:09:47.046Z,15.10
2019-05-28T17:12:19.027Z,15.20
2019-05-28T17:24:55.025Z,15.40
2019-05-28T17:27:27.331Z,16.20
2019-05-28T17:35:03.392Z,16.30
2019-05-28T17:37:35.390Z,15.90
2019-05-28T17:40:08.164Z,15.70
2019-05-28T17:42:40.311Z,15.70
2019-05-28T17:45:11.682Z,15.70
2019-05-28T17:47:44.474Z,15.70
2019-05-28T17:50:16.771Z,15.50
2019-05-28T17:52:51.841Z,15.40
2019-05-28T17:55:23.656Z,15.30
2019-05-28T17:57:56.421Z,15.30
2019-05-28T18:00:28.904Z,15.30
2019-05-28T18:03:00.893Z,15.30
2019-05-28T18:05:32.785Z,15.30
2019-05-28T18:08:04.255Z,15.10
2019-05-28T18:10:36.747Z,15.00
2019-05-28T18:13:08.128Z,14.90
2019-05-28T18:15:40.350Z,14.80
2019-05-28T18:18:12.694Z,14.70
2019-05-28T18:20:44.261Z,14.70
2019-05-28T18:23:17.217Z,14.60
2019-05-28T18:25:52.062Z,14.50
2019-05-28T18:28:24.611Z,14.30
2019-05-28T18:30:57.459Z,14.20
2019-05-28T18:33:30.934Z,14.10
2019-05-28T18:36:03.588Z,14.10
2019-05-28T18:38:43.292Z,14.00
2019-05-28T19:06:23.863Z,14.00
2019-05-28T19:08:56.091Z,13.60
2019-05-28T19:11:37.329Z,13.50
2019-05-28T19:14:01.243Z,13.60
2019-05-28T19:16:33.576Z,13.50
2019-05-28T19:19:05.388Z,13.50
2019-05-28T19:21:37.051Z,13.40
2019-05-28T19:24:08.471Z,13.40
2019-05-28T19:26:40.153Z,13.30
2019-05-28T19:29:11.652Z,13.30
2019-05-28T19:31:43.188Z,13.30
2019-05-28T19:34:15.512Z,13.30
2019-05-28T19:36:49.504Z,13.30
2019-05-28T19:39:24.725Z,13.20
2019-05-28T19:41:56.061Z,13.10
2019-05-28T19:44:27.579Z,13.20
2019-05-28T19:47:01.472Z,13.20
2019-05-28T19:49:33.392Z,13.20
2019-05-28T19:52:05.185Z,13.10
2019-05-28T19:54:38.621Z,13.10
2019-05-28T19:57:11.040Z,13.10
